sensor_id;sensor_type;location;lat;lon;timestamp;pressure;altitude;pressure_sealevel;temperature;humidity
16030;BME280;34770;49.272;11.070;2023-08-12T00:00:31;98105.88;;;18.68;77.23
16030;BME280;34770;49.272;11.070;2023-08-12T00:02:57;98097.81;;;18.67;77.24
16030;BME280;34770;49.272;11.070;2023-08-12T00:05:23;98087.13;;;18.49;77.31
16030;BME280;34770;49.272;11.070;2023-08-12T00:07:49;98066.84;;;18.50;76.96
16030;BME280;34770;49.272;11.070;2023-08-12T00:10:14;98094.91;;;18.68;77.34
16030;BME280;34770;49.272;11.070;2023-08-12T00:12:40;98086.66;;;18.68;77.54
16030;BME280;34770;49.272;11.070;2023-08-12T00:15:07;98070.25;;;18.60;77.21
16030;BME280;34770;49.272;11.070;2023-08-12T00:17:33;98083.81;;;18.53;77.31
16030;BME280;34770;49.272;11.070;2023-08-12T00:19:59;98064.00;;;18.35;77.60
16030;BME280;34770;49.272;11.070;2023-08-12T00:22:25;98082.47;;;18.41;78.33
16030;BME280;34770;49.272;11.070;2023-08-12T00:24:51;98084.97;;;18.20;78.84
16030;BME280;34770;49.272;11.070;2023-08-12T00:27:17;98058.97;;;18.00;79.29
16030;BME280;34770;49.272;11.070;2023-08-12T00:29:42;98088.44;;;18.06;79.76
16030;BME280;34770;49.272;11.070;2023-08-12T00:32:08;98061.91;;;17.99;80.32
16030;BME280;34770;49.272;11.070;2023-08-12T00:34:34;98077.81;;;18.03;79.99
16030;BME280;34770;49.272;11.070;2023-08-12T00:36:59;98057.94;;;18.09;79.78
16030;BME280;34770;49.272;11.070;2023-08-12T00:39:24;98064.25;;;18.18;78.84
16030;BME280;34770;49.272;11.070;2023-08-12T00:41:50;98071.09;;;18.14;78.95
16030;BME280;34770;49.272;11.070;2023-08-12T00:44:15;98063.91;;;18.13;78.80
16030;BME280;34770;49.272;11.070;2023-08-12T00:46:41;98067.66;;;18.20;79.02
16030;BME280;34770;49.272;11.070;2023-08-12T00:49:07;98065.81;;;18.12;78.81
16030;BME280;34770;49.272;11.070;2023-08-12T00:51:34;98061.34;;;18.11;78.77
16030;BME280;34770;49.272;11.070;2023-08-12T00:54:02;98063.56;;;18.16;78.69
16030;BME280;34770;49.272;11.070;2023-08-12T00:56:30;98067.66;;;18.20;78.52
16030;BME280;34770;49.272;11.070;2023-08-12T00:58:57;98055.38;;;18.00;78.79
16030;BME280;34770;49.272;11.070;2023-08-12T01:01:23;98049.63;;;17.78;79.68
16030;BME280;34770;49.272;11.070;2023-08-12T01:03:48;98061.09;;;17.90;79.60
16030;BME280;34770;49.272;11.070;2023-08-12T01:06:14;98046.88;;;17.78;80.06
16030;BME280;34770;49.272;11.070;2023-08-12T01:08:39;98048.41;;;17.89;80.07
16030;BME280;34770;49.272;11.070;2023-08-12T01:11:14;98059.84;;;18.01;78.95
16030;BME280;34770;49.272;11.070;2023-08-12T01:13:52;98053.69;;;17.99;78.51
16030;BME280;34770;49.272;11.070;2023-08-12T01:16:22;98058.13;;;18.00;78.92
16030;BME280;34770;49.272;11.070;2023-08-12T01:18:49;98043.09;;;17.87;79.27
16030;BME280;34770;49.272;11.070;2023-08-12T01:21:16;98050.63;;;17.93;78.85
16030;BME280;34770;49.272;11.070;2023-08-12T01:23:42;98051.81;;;17.91;78.65
16030;BME280;34770;49.272;11.070;2023-08-12T01:26:08;98041.38;;;17.86;78.54
16030;BME280;34770;49.272;11.070;2023-08-12T01:28:33;98038.97;;;17.91;78.66
16030;BME280;34770;49.272;11.070;2023-08-12T01:31:09;98041.53;;;17.93;78.59
16030;BME280;34770;49.272;11.070;2023-08-12T01:33:51;98039.47;;;17.95;78.02
16030;BME280;34770;49.272;11.070;2023-08-12T01:36:19;98032.31;;;17.78;78.18
16030;BME280;34770;49.272;11.070;2023-08-12T01:38:50;98021.72;;;17.67;78.84
16030;BME280;34770;49.272;11.070;2023-08-12T01:41:16;98028.78;;;17.61;78.48
16030;BME280;34770;49.272;11.070;2023-08-12T01:43:43;98024.47;;;17.51;79.48
16030;BME280;34770;49.272;11.070;2023-08-12T01:46:10;98016.41;;;17.49;79.35
16030;BME280;34770;49.272;11.070;2023-08-12T01:48:35;98030.97;;;17.66;79.19
16030;BME280;34770;49.272;11.070;2023-08-12T01:51:01;98036.09;;;17.69;78.47
16030;BME280;34770;49.272;11.070;2023-08-12T01:53:26;98015.94;;;17.54;78.96
16030;BME280;34770;49.272;11.070;2023-08-12T01:55:52;98020.91;;;17.58;78.87
16030;BME280;34770;49.272;11.070;2023-08-12T01:58:17;98020.53;;;17.53;78.71
16030;BME280;34770;49.272;11.070;2023-08-12T02:00:43;98022.09;;;17.56;78.65
16030;BME280;34770;49.272;11.070;2023-08-12T02:03:08;98015.75;;;17.47;79.16
16030;BME280;34770;49.272;11.070;2023-08-12T02:05:33;98014.75;;;17.56;78.69
16030;BME280;34770;49.272;11.070;2023-08-12T02:07:59;98015.75;;;17.55;78.61
16030;BME280;34770;49.272;11.070;2023-08-12T02:10:24;98003.44;;;17.43;78.77
16030;BME280;34770;49.272;11.070;2023-08-12T02:12:49;97992.81;;;17.32;78.58
16030;BME280;34770;49.272;11.070;2023-08-12T02:15:15;98011.31;;;17.38;79.17
16030;BME280;34770;49.272;11.070;2023-08-12T02:17:40;98019.53;;;17.38;79.46
16030;BME280;34770;49.272;11.070;2023-08-12T02:20:06;98014.03;;;17.46;79.08
16030;BME280;34770;49.272;11.070;2023-08-12T02:22:32;98016.44;;;17.41;78.84
16030;BME280;34770;49.272;11.070;2023-08-12T02:24:57;98018.66;;;17.37;79.21
16030;BME280;34770;49.272;11.070;2023-08-12T02:27:23;98009.94;;;17.42;79.06
16030;BME280;34770;49.272;11.070;2023-08-12T02:29:48;97996.75;;;17.37;78.95
16030;BME280;34770;49.272;11.070;2023-08-12T02:32:13;98007.53;;;17.47;78.71
16030;BME280;34770;49.272;11.070;2023-08-12T02:34:39;98001.88;;;17.40;78.86
16030;BME280;34770;49.272;11.070;2023-08-12T02:37:04;97991.97;;;17.39;79.22
16030;BME280;34770;49.272;11.070;2023-08-12T02:39:29;97984.59;;;17.32;78.94
16030;BME280;34770;49.272;11.070;2023-08-12T02:41:55;97997.47;;;17.31;79.03
16030;BME280;34770;49.272;11.070;2023-08-12T02:44:20;97999.84;;;17.18;80.03
16030;BME280;34770;49.272;11.070;2023-08-12T02:46:45;97991.66;;;17.02;80.59
16030;BME280;34770;49.272;11.070;2023-08-12T02:49:11;98002.44;;;17.12;80.38
16030;BME280;34770;49.272;11.070;2023-08-12T02:51:36;97992.84;;;17.08;80.50
16030;BME280;34770;49.272;11.070;2023-08-12T02:54:02;98006.88;;;17.13;80.24
16030;BME280;34770;49.272;11.070;2023-08-12T02:56:27;97990.31;;;17.06;80.61
16030;BME280;34770;49.272;11.070;2023-08-12T02:58:52;97979.34;;;17.06;80.52
16030;BME280;34770;49.272;11.070;2023-08-12T03:01:18;97997.81;;;17.12;80.11
16030;BME280;34770;49.272;11.070;2023-08-12T03:03:44;97989.09;;;17.09;79.75
16030;BME280;34770;49.272;11.070;2023-08-12T03:06:09;97989.78;;;17.11;79.51
16030;BME280;34770;49.272;11.070;2023-08-12T03:08:35;97981.91;;;17.08;79.81
16030;BME280;34770;49.272;11.070;2023-08-12T03:11:01;97991.84;;;17.09;79.84
16030;BME280;34770;49.272;11.070;2023-08-12T03:13:27;97974.72;;;16.91;80.51
16030;BME280;34770;49.272;11.070;2023-08-12T03:15:53;97987.41;;;16.75;81.44
16030;BME280;34770;49.272;11.070;2023-08-12T03:18:19;97980.34;;;16.73;81.66
16030;BME280;34770;49.272;11.070;2023-08-12T03:20:44;97985.53;;;16.84;81.08
16030;BME280;34770;49.272;11.070;2023-08-12T03:23:09;97977.13;;;16.86;80.75
16030;BME280;34770;49.272;11.070;2023-08-12T03:25:35;97982.94;;;16.99;80.26
16030;BME280;34770;49.272;11.070;2023-08-12T03:28:00;97973.03;;;16.90;79.55
16030;BME280;34770;49.272;11.070;2023-08-12T03:30:25;97980.38;;;16.97;79.79
16030;BME280;34770;49.272;11.070;2023-08-12T03:32:51;97980.03;;;16.92;79.75
16030;BME280;34770;49.272;11.070;2023-08-12T03:35:17;97981.25;;;16.90;79.61
16030;BME280;34770;49.272;11.070;2023-08-12T03:37:43;97974.91;;;16.81;79.75
16030;BME280;34770;49.272;11.070;2023-08-12T03:40:08;97979.88;;;16.77;80.39
16030;BME280;34770;49.272;11.070;2023-08-12T03:42:34;97978.47;;;16.81;80.08
16030;BME280;34770;49.272;11.070;2023-08-12T03:44:59;97983.63;;;16.68;80.22
16030;BME280;34770;49.272;11.070;2023-08-12T03:47:24;97988.75;;;16.71;80.43
16030;BME280;34770;49.272;11.070;2023-08-12T03:49:50;97968.41;;;16.66;79.87
16030;BME280;34770;49.272;11.070;2023-08-12T03:52:15;97988.06;;;16.77;79.94
16030;BME280;34770;49.272;11.070;2023-08-12T03:54:41;97978.31;;;16.83;79.61
16030;BME280;34770;49.272;11.070;2023-08-12T03:57:06;97959.31;;;16.65;79.21
16030;BME280;34770;49.272;11.070;2023-08-12T03:59:31;97990.47;;;16.72;79.46
16030;BME280;34770;49.272;11.070;2023-08-12T04:01:57;97981.59;;;16.78;79.70
16030;BME280;34770;49.272;11.070;2023-08-12T04:04:23;97976.59;;;16.82;79.80
16030;BME280;34770;49.272;11.070;2023-08-12T04:06:48;97976.78;;;16.80;79.15
16030;BME280;34770;49.272;11.070;2023-08-12T04:09:19;97975.75;;;16.65;79.35
16030;BME280;34770;49.272;11.070;2023-08-12T04:11:45;97978.66;;;16.80;79.57
16030;BME280;34770;49.272;11.070;2023-08-12T04:14:11;97981.59;;;16.78;79.50
16030;BME280;34770;49.272;11.070;2023-08-12T04:16:38;97975.59;;;16.83;79.52
16030;BME280;34770;49.272;11.070;2023-08-12T04:19:03;97978.00;;;16.78;79.73
16030;BME280;34770;49.272;11.070;2023-08-12T04:21:29;97972.00;;;16.83;79.69
16030;BME280;34770;49.272;11.070;2023-08-12T04:23:54;97974.53;;;16.76;79.46
16030;BME280;34770;49.272;11.070;2023-08-12T04:26:19;97958.47;;;16.65;79.28
16030;BME280;34770;49.272;11.070;2023-08-12T04:28:45;97973.53;;;16.77;79.56
16030;BME280;34770;49.272;11.070;2023-08-12T04:31:13;97986.53;;;16.75;80.16
16030;BME280;34770;49.272;11.070;2023-08-12T04:33:39;97982.06;;;16.82;80.16
16030;BME280;34770;49.272;11.070;2023-08-12T04:36:05;97989.81;;;16.78;80.25
16030;BME280;34770;49.272;11.070;2023-08-12T04:38:30;97966.84;;;16.79;80.42
16030;BME280;34770;49.272;11.070;2023-08-12T04:40:56;97976.44;;;16.92;80.34
16030;BME280;34770;49.272;11.070;2023-08-12T04:43:22;97978.16;;;17.01;79.94
16030;BME280;34770;49.272;11.070;2023-08-12T04:45:47;97954.53;;;17.00;79.79
16030;BME280;34770;49.272;11.070;2023-08-12T04:48:13;97970.25;;;17.22;79.43
16030;BME280;34770;49.272;11.070;2023-08-12T04:50:39;97970.22;;;17.30;78.62
16030;BME280;34770;49.272;11.070;2023-08-12T04:53:05;97969.53;;;17.36;78.20
16030;BME280;34770;49.272;11.070;2023-08-12T04:55:31;97959.09;;;17.39;77.65
16030;BME280;34770;49.272;11.070;2023-08-12T04:57:56;97962.81;;;17.47;77.73
16030;BME280;34770;49.272;11.070;2023-08-12T05:00:22;97973.13;;;17.45;78.18
16030;BME280;34770;49.272;11.070;2023-08-12T05:02:48;97973.63;;;17.48;78.40
16030;BME280;34770;49.272;11.070;2023-08-12T05:05:13;97980.66;;;17.59;78.38
16030;BME280;34770;49.272;11.070;2023-08-12T05:07:39;97974.59;;;17.79;77.99
16030;BME280;34770;49.272;11.070;2023-08-12T05:10:04;97958.50;;;17.76;77.85
16030;BME280;34770;49.272;11.070;2023-08-12T05:12:30;97948.16;;;17.86;77.66
16030;BME280;34770;49.272;11.070;2023-08-12T05:14:55;97966.09;;;17.97;77.80
16030;BME280;34770;49.272;11.070;2023-08-12T05:17:21;97952.03;;;18.00;77.16
16030;BME280;34770;49.272;11.070;2023-08-12T05:19:46;97941.16;;;17.84;76.83
16030;BME280;34770;49.272;11.070;2023-08-12T05:22:12;97956.69;;;17.91;77.79
16030;BME280;34770;49.272;11.070;2023-08-12T05:24:37;97951.91;;;17.93;77.62
16030;BME280;34770;49.272;11.070;2023-08-12T05:27:03;97933.47;;;17.71;77.28
16030;BME280;34770;49.272;11.070;2023-08-12T05:29:29;97956.22;;;17.80;77.71
16030;BME280;34770;49.272;11.070;2023-08-12T05:31:55;97949.94;;;17.79;77.84
16030;BME280;34770;49.272;11.070;2023-08-12T05:34:20;97962.56;;;17.80;77.96
16030;BME280;34770;49.272;11.070;2023-08-12T05:36:45;97958.88;;;18.04;77.79
16030;BME280;34770;49.272;11.070;2023-08-12T05:39:11;97958.44;;;18.23;77.58
16030;BME280;34770;49.272;11.070;2023-08-12T05:41:36;97960.53;;;18.52;76.06
16030;BME280;34770;49.272;11.070;2023-08-12T05:44:02;97963.56;;;18.80;74.85
16030;BME280;34770;49.272;11.070;2023-08-12T05:46:27;97954.69;;;18.92;72.42
16030;BME280;34770;49.272;11.070;2023-08-12T05:48:52;97949.06;;;19.08;71.88
16030;BME280;34770;49.272;11.070;2023-08-12T05:51:18;97934.06;;;19.34;71.35
16030;BME280;34770;49.272;11.070;2023-08-12T05:53:43;97939.47;;;19.56;69.26
16030;BME280;34770;49.272;11.070;2023-08-12T05:56:09;97955.34;;;19.84;69.44
16030;BME280;34770;49.272;11.070;2023-08-12T05:58:34;97959.84;;;20.06;68.22
16030;BME280;34770;49.272;11.070;2023-08-12T06:00:59;97949.97;;;20.11;67.84
16030;BME280;34770;49.272;11.070;2023-08-12T06:03:25;97958.69;;;20.30;67.16
16030;BME280;34770;49.272;11.070;2023-08-12T06:05:50;97954.13;;;20.37;67.75
16030;BME280;34770;49.272;11.070;2023-08-12T06:08:15;97929.88;;;20.47;66.75
16030;BME280;34770;49.272;11.070;2023-08-12T06:10:41;97945.78;;;20.66;67.51
16030;BME280;34770;49.272;11.070;2023-08-12T06:13:06;97935.59;;;20.45;66.64
16030;BME280;34770;49.272;11.070;2023-08-12T06:15:32;97938.44;;;20.52;67.23
16030;BME280;34770;49.272;11.070;2023-08-12T06:17:59;97929.75;;;20.34;67.36
16030;BME280;34770;49.272;11.070;2023-08-12T06:20:24;97945.38;;;20.48;67.88
16030;BME280;34770;49.272;11.070;2023-08-12T06:22:50;97937.50;;;20.45;67.35
16030;BME280;34770;49.272;11.070;2023-08-12T06:25:15;97938.31;;;20.60;67.13
16030;BME280;34770;49.272;11.070;2023-08-12T06:27:41;97917.69;;;20.56;66.50
16030;BME280;34770;49.272;11.070;2023-08-12T06:30:07;97929.78;;;20.76;66.63
16030;BME280;34770;49.272;11.070;2023-08-12T06:32:34;97934.28;;;20.83;66.43
16030;BME280;34770;49.272;11.070;2023-08-12T06:34:59;97934.34;;;20.90;66.96
16030;BME280;34770;49.272;11.070;2023-08-12T06:37:24;97935.66;;;20.94;66.34
16030;BME280;34770;49.272;11.070;2023-08-12T06:39:50;97935.97;;;21.06;66.40
16030;BME280;34770;49.272;11.070;2023-08-12T06:42:15;97933.44;;;21.04;65.94
16030;BME280;34770;49.272;11.070;2023-08-12T06:44:41;97933.91;;;21.08;66.04
16030;BME280;34770;49.272;11.070;2023-08-12T06:47:06;97931.25;;;21.21;65.98
16030;BME280;34770;49.272;11.070;2023-08-12T06:49:32;97931.56;;;21.32;65.81
16030;BME280;34770;49.272;11.070;2023-08-12T06:51:57;97928.25;;;21.44;65.59
16030;BME280;34770;49.272;11.070;2023-08-12T06:54:22;97931.91;;;21.51;66.19
16030;BME280;34770;49.272;11.070;2023-08-12T06:56:49;97922.78;;;21.50;64.93
16030;BME280;34770;49.272;11.070;2023-08-12T06:59:14;97920.59;;;21.73;64.93
16030;BME280;34770;49.272;11.070;2023-08-12T07:01:40;97921.91;;;21.84;64.54
16030;BME280;34770;49.272;11.070;2023-08-12T07:04:05;97940.19;;;22.19;63.88
16030;BME280;34770;49.272;11.070;2023-08-12T07:06:30;97925.41;;;22.40;64.10
16030;BME280;34770;49.272;11.070;2023-08-12T07:08:56;97926.66;;;22.44;62.89
16030;BME280;34770;49.272;11.070;2023-08-12T07:11:21;97916.88;;;22.41;62.79
16030;BME280;34770;49.272;11.070;2023-08-12T07:13:47;97916.50;;;22.51;62.93
16030;BME280;34770;49.272;11.070;2023-08-12T07:16:12;97902.88;;;22.49;63.10
16030;BME280;34770;49.272;11.070;2023-08-12T07:18:37;97923.56;;;22.67;63.05
16030;BME280;34770;49.272;11.070;2023-08-12T07:21:03;97927.19;;;22.67;63.17
16030;BME280;34770;49.272;11.070;2023-08-12T07:23:29;97927.19;;;22.74;62.89
16030;BME280;34770;49.272;11.070;2023-08-12T07:25:54;97915.31;;;22.73;62.47
16030;BME280;34770;49.272;11.070;2023-08-12T07:28:20;97928.91;;;22.88;62.53
16030;BME280;34770;49.272;11.070;2023-08-12T07:30:45;97927.84;;;22.89;62.22
16030;BME280;34770;49.272;11.070;2023-08-12T07:33:11;97923.38;;;22.88;61.89
16030;BME280;34770;49.272;11.070;2023-08-12T07:35:36;97938.50;;;22.92;61.66
16030;BME280;34770;49.272;11.070;2023-08-12T07:38:01;97926.38;;;22.86;62.02
16030;BME280;34770;49.272;11.070;2023-08-12T07:40:27;97931.03;;;22.99;61.15
16030;BME280;34770;49.272;11.070;2023-08-12T07:42:52;97936.38;;;23.14;61.37
16030;BME280;34770;49.272;11.070;2023-08-12T07:45:18;97934.91;;;23.18;59.28
16030;BME280;34770;49.272;11.070;2023-08-12T07:47:43;97931.50;;;23.29;59.32
16030;BME280;34770;49.272;11.070;2023-08-12T07:50:09;97926.41;;;23.39;59.17
16030;BME280;34770;49.272;11.070;2023-08-12T07:52:34;97941.28;;;23.71;58.82
16030;BME280;34770;49.272;11.070;2023-08-12T07:55:01;97943.56;;;23.87;58.52
16030;BME280;34770;49.272;11.070;2023-08-12T07:57:26;97942.91;;;23.98;58.52
16030;BME280;34770;49.272;11.070;2023-08-12T07:59:51;97944.50;;;24.32;57.85
16030;BME280;34770;49.272;11.070;2023-08-12T08:02:17;97949.91;;;24.07;57.17
16030;BME280;34770;49.272;11.070;2023-08-12T08:04:43;97945.88;;;24.09;57.25
16030;BME280;34770;49.272;11.070;2023-08-12T08:07:08;97947.16;;;24.00;57.70
16030;BME280;34770;49.272;11.070;2023-08-12T08:09:34;97936.72;;;23.96;58.00
16030;BME280;34770;49.272;11.070;2023-08-12T08:12:00;97944.38;;;24.07;57.31
16030;BME280;34770;49.272;11.070;2023-08-12T08:14:26;97944.50;;;24.32;58.16
16030;BME280;34770;49.272;11.070;2023-08-12T08:16:52;97936.63;;;24.35;56.77
16030;BME280;34770;49.272;11.070;2023-08-12T08:19:18;97911.91;;;24.34;57.23
16030;BME280;34770;49.272;11.070;2023-08-12T08:21:43;97934.78;;;24.60;57.15
16030;BME280;34770;49.272;11.070;2023-08-12T08:24:09;97935.84;;;24.59;57.66
16030;BME280;34770;49.272;11.070;2023-08-12T08:26:36;97919.44;;;24.64;56.83
16030;BME280;34770;49.272;11.070;2023-08-12T08:29:02;97929.56;;;24.77;57.53
16030;BME280;34770;49.272;11.070;2023-08-12T08:31:28;97931.47;;;24.76;56.63
16030;BME280;34770;49.272;11.070;2023-08-12T08:33:53;97924.97;;;24.96;56.20
16030;BME280;34770;49.272;11.070;2023-08-12T08:36:18;97921.25;;;24.77;56.58
16030;BME280;34770;49.272;11.070;2023-08-12T08:38:44;97905.91;;;24.74;56.39
16030;BME280;34770;49.272;11.070;2023-08-12T08:41:10;97935.34;;;24.75;56.02
16030;BME280;34770;49.272;11.070;2023-08-12T08:43:36;97935.13;;;24.84;56.79
16030;BME280;34770;49.272;11.070;2023-08-12T08:46:02;97940.44;;;24.78;56.91
16030;BME280;34770;49.272;11.070;2023-08-12T08:48:27;97936.09;;;24.58;59.18
16030;BME280;34770;49.272;11.070;2023-08-12T08:50:53;97906.91;;;24.55;58.11
16030;BME280;34770;49.272;11.070;2023-08-12T08:53:19;97925.59;;;24.66;57.98
16030;BME280;34770;49.272;11.070;2023-08-12T08:55:46;97944.41;;;24.51;57.72
16030;BME280;34770;49.272;11.070;2023-08-12T08:58:11;97943.47;;;24.70;57.20
16030;BME280;34770;49.272;11.070;2023-08-12T09:00:38;97942.44;;;25.03;58.02
16030;BME280;34770;49.272;11.070;2023-08-12T09:03:05;97924.09;;;25.02;55.46
16030;BME280;34770;49.272;11.070;2023-08-12T09:05:32;97920.44;;;25.08;55.79
16030;BME280;34770;49.272;11.070;2023-08-12T09:07:59;97928.25;;;25.42;55.56
16030;BME280;34770;49.272;11.070;2023-08-12T09:10:26;97921.25;;;25.64;53.58
16030;BME280;34770;49.272;11.070;2023-08-12T09:12:53;97920.75;;;26.10;53.72
16030;BME280;34770;49.272;11.070;2023-08-12T09:15:19;97924.53;;;26.34;52.56
16030;BME280;34770;49.272;11.070;2023-08-12T09:17:45;97907.69;;;26.11;52.25
16030;BME280;34770;49.272;11.070;2023-08-12T09:20:10;97919.22;;;26.32;52.44
16030;BME280;34770;49.272;11.070;2023-08-12T09:22:42;97921.09;;;26.50;51.49
16030;BME280;34770;49.272;11.070;2023-08-12T09:25:09;97908.72;;;26.64;51.89
16030;BME280;34770;49.272;11.070;2023-08-12T09:27:38;97922.34;;;26.54;51.71
16030;BME280;34770;49.272;11.070;2023-08-12T09:30:04;97921.47;;;26.24;51.84
16030;BME280;34770;49.272;11.070;2023-08-12T09:32:30;97922.06;;;26.26;51.71
16030;BME280;34770;49.272;11.070;2023-08-12T09:34:55;97899.59;;;26.45;52.27
16030;BME280;34770;49.272;11.070;2023-08-12T09:37:22;97924.47;;;26.40;51.50
16030;BME280;34770;49.272;11.070;2023-08-12T09:39:50;97925.69;;;26.74;51.40
16030;BME280;34770;49.272;11.070;2023-08-12T09:42:16;97917.47;;;26.97;51.29
16030;BME280;34770;49.272;11.070;2023-08-12T09:44:42;97911.66;;;26.99;50.38
16030;BME280;34770;49.272;11.070;2023-08-12T09:47:08;97925.63;;;26.81;50.81
16030;BME280;34770;49.272;11.070;2023-08-12T09:49:34;97929.09;;;26.76;50.74
16030;BME280;34770;49.272;11.070;2023-08-12T09:52:00;97932.81;;;26.88;51.70
16030;BME280;34770;49.272;11.070;2023-08-12T09:54:27;97921.09;;;26.98;50.56
16030;BME280;34770;49.272;11.070;2023-08-12T09:56:57;97925.75;;;27.16;50.07
16030;BME280;34770;49.272;11.070;2023-08-12T09:59:24;97937.22;;;27.60;50.08
16030;BME280;34770;49.272;11.070;2023-08-12T10:01:52;97923.03;;;27.85;48.99
16030;BME280;34770;49.272;11.070;2023-08-12T10:04:21;97929.09;;;27.94;49.26
16030;BME280;34770;49.272;11.070;2023-08-12T10:06:48;97933.69;;;28.00;48.85
16030;BME280;34770;49.272;11.070;2023-08-12T10:09:15;97935.03;;;27.97;47.82
16030;BME280;34770;49.272;11.070;2023-08-12T10:11:41;97908.84;;;27.40;49.03
16030;BME280;34770;49.272;11.070;2023-08-12T10:14:09;97918.50;;;27.26;49.82
16030;BME280;34770;49.272;11.070;2023-08-12T10:16:35;97923.56;;;27.59;49.09
16030;BME280;34770;49.272;11.070;2023-08-12T10:19:02;97921.66;;;27.30;49.15
16030;BME280;34770;49.272;11.070;2023-08-12T10:21:29;97917.63;;;27.79;48.57
16030;BME280;34770;49.272;11.070;2023-08-12T10:23:57;97921.34;;;28.59;47.91
16030;BME280;34770;49.272;11.070;2023-08-12T10:26:24;97912.59;;;28.79;47.55
16030;BME280;34770;49.272;11.070;2023-08-12T10:28:50;97898.78;;;29.17;46.58
16030;BME280;34770;49.272;11.070;2023-08-12T10:31:16;97908.38;;;28.93;48.08
16030;BME280;34770;49.272;11.070;2023-08-12T10:33:42;97887.22;;;28.80;47.57
16030;BME280;34770;49.272;11.070;2023-08-12T10:36:08;97896.72;;;29.24;47.63
16030;BME280;34770;49.272;11.070;2023-08-12T10:38:34;97900.09;;;29.43;46.47
16030;BME280;34770;49.272;11.070;2023-08-12T10:43:59;97880.22;;;30.32;45.02
16030;BME280;34770;49.272;11.070;2023-08-12T10:46:33;97879.38;;;30.32;43.71
16030;BME280;34770;49.272;11.070;2023-08-12T10:49:02;97871.66;;;30.39;44.66
16030;BME280;34770;49.272;11.070;2023-08-12T11:02:28;97872.06;;;31.54;41.40
16030;BME280;34770;49.272;11.070;2023-08-12T11:05:04;97850.44;;;31.18;41.72
16030;BME280;34770;49.272;11.070;2023-08-12T11:07:42;97858.66;;;32.03;40.59
16030;BME280;34770;49.272;11.070;2023-08-12T11:10:20;97860.22;;;31.47;44.21
16030;BME280;34770;49.272;11.070;2023-08-12T11:17:58;97840.63;;;32.46;39.91
16030;BME280;34770;49.272;11.070;2023-08-12T11:20:25;97831.31;;;31.84;42.24
16030;BME280;34770;49.272;11.070;2023-08-12T11:22:53;97821.78;;;31.80;41.58
16030;BME280;34770;49.272;11.070;2023-08-12T11:25:18;97822.94;;;31.47;41.65
16030;BME280;34770;49.272;11.070;2023-08-12T11:27:47;97836.56;;;32.12;41.38
16030;BME280;34770;49.272;11.070;2023-08-12T11:30:14;97830.31;;;32.00;40.68
16030;BME280;34770;49.272;11.070;2023-08-12T11:32:47;97832.81;;;32.53;39.36
16030;BME280;34770;49.272;11.070;2023-08-12T11:35:15;97828.41;;;32.05;38.24
16030;BME280;34770;49.272;11.070;2023-08-12T11:37:42;97829.88;;;32.23;38.82
16030;BME280;34770;49.272;11.070;2023-08-12T11:40:10;97825.75;;;32.46;38.87
16030;BME280;34770;49.272;11.070;2023-08-12T11:42:38;97818.19;;;32.41;38.05
16030;BME280;34770;49.272;11.070;2023-08-12T11:45:04;97808.19;;;32.86;37.95
16030;BME280;34770;49.272;11.070;2023-08-12T11:47:30;97819.72;;;32.94;38.17
16030;BME280;34770;49.272;11.070;2023-08-12T11:49:55;97810.78;;;33.28;37.75
16030;BME280;34770;49.272;11.070;2023-08-12T11:52:21;97804.81;;;33.90;36.88
16030;BME280;34770;49.272;11.070;2023-08-12T11:54:49;97799.84;;;33.26;36.53
16030;BME280;34770;49.272;11.070;2023-08-12T11:57:15;97791.94;;;32.93;36.44
16030;BME280;34770;49.272;11.070;2023-08-12T11:59:40;97789.44;;;33.21;35.22
16030;BME280;34770;49.272;11.070;2023-08-12T12:02:06;97781.16;;;32.49;37.19
16030;BME280;34770;49.272;11.070;2023-08-12T12:04:32;97778.75;;;32.01;38.71
16030;BME280;34770;49.272;11.070;2023-08-12T12:06:58;97778.72;;;32.78;38.18
16030;BME280;34770;49.272;11.070;2023-08-12T12:09:24;97760.22;;;33.12;36.74
16030;BME280;34770;49.272;11.070;2023-08-12T12:11:52;97773.97;;;33.54;35.50
16030;BME280;34770;49.272;11.070;2023-08-12T12:14:18;97770.63;;;33.22;34.86
16030;BME280;34770;49.272;11.070;2023-08-12T12:16:47;97768.63;;;33.28;35.79
16030;BME280;34770;49.272;11.070;2023-08-12T12:19:19;97762.44;;;33.61;35.16
16030;BME280;34770;49.272;11.070;2023-08-12T12:21:47;97757.13;;;32.79;36.50
16030;BME280;34770;49.272;11.070;2023-08-12T12:24:13;97744.78;;;33.20;35.31
16030;BME280;34770;49.272;11.070;2023-08-12T12:26:39;97740.81;;;32.96;34.88
16030;BME280;34770;49.272;11.070;2023-08-12T12:29:05;97734.06;;;33.32;35.04
16030;BME280;34770;49.272;11.070;2023-08-12T12:31:35;97741.03;;;33.55;35.24
16030;BME280;34770;49.272;11.070;2023-08-12T12:34:01;97736.31;;;33.45;34.67
16030;BME280;34770;49.272;11.070;2023-08-12T12:36:28;97724.53;;;32.88;33.82
16030;BME280;34770;49.272;11.070;2023-08-12T12:38:53;97716.03;;;33.63;34.14
16030;BME280;34770;49.272;11.070;2023-08-12T12:41:19;97720.94;;;34.07;32.71
16030;BME280;34770;49.272;11.070;2023-08-12T12:43:44;97721.84;;;33.92;34.16
16030;BME280;34770;49.272;11.070;2023-08-12T12:46:10;97723.38;;;33.59;34.52
16030;BME280;34770;49.272;11.070;2023-08-12T12:48:35;97715.56;;;32.76;34.49
16030;BME280;34770;49.272;11.070;2023-08-12T12:51:01;97739.41;;;32.78;34.64
16030;BME280;34770;49.272;11.070;2023-08-12T12:53:26;97734.75;;;32.06;36.32
16030;BME280;34770;49.272;11.070;2023-08-12T12:55:52;97749.97;;;31.69;38.02
16030;BME280;34770;49.272;11.070;2023-08-12T12:58:17;97751.97;;;31.83;37.37
16030;BME280;34770;49.272;11.070;2023-08-12T13:00:43;97761.28;;;31.89;38.27
16030;BME280;34770;49.272;11.070;2023-08-12T13:03:08;97773.63;;;31.93;37.37